Terminal Aerodrome Forecast
Issued by NWS Denver/Boulder, CO

Home | Current Version | Previous Version | Text Only | Print | Product List | Glossary On
Versions: 1 2 3 4 5 6 7 8 9 10 11 12 13 14 15 16 17 18 19 20 21 22 23 24 25 26 27 28 29 30 31 32 33 34 35 36 37 38 39 40 41 42 43 44 45 46 47 48 49 50
567
FTUS45 KBOU 221727
TAFDEN
TAF
KDEN 221727Z 2218/2324 22006KT P6SM FEW120 FEW200
     FM222300 11006KT P6SM FEW120 BKN200
     FM230400 16010KT P6SM FEW100 BKN140
     FM230600 20012KT P6SM FEW100 OVC120
     FM231400 24013KT P6SM BKN070 OVC120=

USA.gov is the U.S. government's official web portal to all federal, state and local government web resources and services.